Time;durP1;ratioP1;P1;durP2;ratioP2;P2;SDS_P1;SDS_P2;PMS_P1;PMS_P2;Temp;Humidity;BMP_temperature;BMP_pressure;BME280_temperature;BME280_humidity;BME280_pressure;Samples;Min_cycle;Max_cycle;Signal;HPM_P1;HPM_P2
2021/06/15 00:01:20;;;;;;;;;;;;;;;;;;3554992;27;19965;-44
2021/06/15 00:03:01;;;;;;;;;;;;;;;;;;3552643;27;20029;-45
2021/06/15 00:04:42;;;;;;;;;;;;;;;;;;3554712;27;19927;-45
2021/06/15 00:06:23;;;;;;;;;;;;;;;;;;3553262;27;20013;-45
2021/06/15 00:08:03;;;;;;;;;;;;;;;;;;3554457;27;20444;-47
2021/06/15 00:09:45;;;;;;;;;;;;;;;;;;3553288;27;19927;-45
2021/06/15 00:11:26;;;;;;;;;;;;;;;;;;3552869;27;19986;-44
2021/06/15 00:13:06;;;;;;;;;;;;;;;;;;3551938;27;19933;-44
2021/06/15 00:14:47;;;;;;;;;;;;;;;;;;3554255;27;20377;-44
2021/06/15 00:16:29;;;;;;;;;;;;;;;;;;3554230;27;19933;-44
2021/06/15 00:18:10;;;;;;;;;;;;;;;;;;3552712;27;20312;-44
2021/06/15 00:19:50;;;;;;;;;;;;;;;;;;3555435;27;19967;-45
2021/06/15 00:21:31;;;;;;;;;;;;;;;;;;3552978;27;19969;-44
2021/06/15 00:23:12;;;;;;;;;;;;;;;;;;3553925;27;19927;-44
2021/06/15 00:24:53;;;;;;;;;;;;;;;;;;3553691;27;20014;-45
2021/06/15 00:26:34;;;;;;;;;;;;;;;;;;3554702;27;20421;-46
2021/06/15 00:28:15;;;;;;;;;;;;;;;;;;3554589;27;19936;-40
2021/06/15 00:29:56;;;;;;;;;;;;;;;;;;3552679;27;20059;-40
2021/06/15 00:31:37;;;;;;;;;;;;;;;;;;3554051;27;20349;-40
2021/06/15 00:33:18;;;;;;;;;;;;;;;;;;3552808;27;20370;-40
2021/06/15 00:34:59;;;;;;;;;;;;;;;;;;3555303;27;19927;-40
2021/06/15 00:36:40;;;;;;;;;;;;;;;;;;3552776;27;20387;-40
2021/06/15 00:38:21;;;;;;;;;;;;;;;;;;3555585;27;19934;-40
2021/06/15 00:40:02;;;;;;;;;;;;;;;;;;3554564;27;20017;-40
2021/06/15 00:41:43;;;;;;;;;;;;;;;;;;3552509;27;19934;-40
2021/06/15 00:43:24;;;;;;;;;;;;;;;;;;3556432;27;20009;-40
2021/06/15 00:45:04;;;;;;;;;;;;;;;;;;3555310;27;20021;-40
2021/06/15 00:46:45;;;;;;;;;;;;;;;;;;3557748;27;20087;-40
2021/06/15 00:48:26;;;;;;;;;;;;;;;;;;3555343;27;20021;-40
2021/06/15 00:50:07;;;;;;;;;;;;;;;;;;3556233;27;19927;-40
2021/06/15 00:51:48;;;;;;;;;;;;;;;;;;3557144;27;19933;-40
2021/06/15 00:53:29;;;;;;;;;;;;;;;;;;3555640;27;19927;-40
2021/06/15 00:55:10;;;;;;;;;;;;;;;;;;3557794;27;20112;-40
2021/06/15 00:56:51;;;;;;;;;;;;;;;;;;3555083;27;19927;-40
2021/06/15 00:58:31;;;;;;;;;;;;;;;;;;3557775;27;19927;-40
2021/06/15 01:00:12;;;;;;;;;;;;;;;;;;3555175;27;19927;-40
2021/06/15 01:01:53;;;;;;;;;;;;;;;;;;3557593;27;20281;-40
2021/06/15 01:03:34;;;;;;;;;;;;;;;;;;3556722;27;20030;-40
2021/06/15 01:05:15;;;;;;;;;;;;;;;;;;3556194;27;20013;-40
2021/06/15 01:06:56;;;;;;;;;;;;;;;;;;3555138;27;19934;-40
2021/06/15 01:08:37;;;;;;;;;;;;;;;;;;3554864;27;19931;-40
2021/06/15 01:10:18;;;;;;;;;;;;;;;;;;3557620;27;20023;-40
2021/06/15 01:11:59;;;;;;;;;;;;;;;;;;3555118;27;19927;-40
2021/06/15 01:13:40;;;;;;;;;;;;;;;;;;3556843;27;19927;-39
2021/06/15 01:15:21;;;;;;;;;;;;;;;;;;3554589;27;20285;-40
2021/06/15 01:17:02;;;;;;;;;;;;;;;;;;3556336;27;20400;-41
2021/06/15 01:18:43;;;;;;;;;;;;;;;;;;3557781;27;19979;-40
2021/06/15 01:20:24;;;;;;;;;;;;;;;;;;3554540;27;19931;-40
2021/06/15 01:22:05;;;;;;;;;;;;;;;;;;3554776;27;20074;-39
2021/06/15 01:23:45;;;;;;;;;;;;;;;;;;3555155;27;19931;-39
2021/06/15 01:25:26;;;;;;;;;;;;;;;;;;3556050;27;19930;-40
2021/06/15 01:27:07;;;;;;;;;;;;;;;;;;3554334;27;20031;-40
2021/06/15 01:28:48;;;;;;;;;;;;;;;;;;3556251;27;20413;-40
2021/06/15 01:30:29;;;;;;;;;;;;;;;;;;3556502;27;19931;-40
2021/06/15 01:32:10;;;;;;;;;;;;;;;;;;3554437;27;19927;-40
2021/06/15 01:33:51;;;;;;;;;;;;;;;;;;3557278;27;20388;-40
2021/06/15 01:35:32;;;;;;;;;;;;;;;;;;3554793;27;19933;-40
2021/06/15 01:37:13;;;;;;;;;;;;;;;;;;3556780;27;19927;-39
2021/06/15 01:38:54;;;;;;;;;;;;;;;;;;3554685;27;19980;-40
2021/06/15 01:40:34;;;;;;;;;;;;;;;;;;3555900;27;19927;-39
2021/06/15 01:42:15;;;;;;;;;;;;;;;;;;3555396;27;20392;-40
2021/06/15 01:43:57;;;;;;;;;;;;;;;;;;3554961;27;19955;-40
2021/06/15 01:45:37;;;;;;;;;;;;;;;;;;3557555;27;20492;-40
2021/06/15 01:47:18;;;;;;;;;;;;;;;;;;3554388;27;19926;-39
2021/06/15 01:49:02;;;;;;;;;;;;;;;;;;3555714;27;19927;-39
2021/06/15 01:50:43;;;;;;;;;;;;;;;;;;3554500;27;20400;-39
2021/06/15 01:52:24;;;;;;;;;;;;;;;;;;3557171;27;19927;-40
2021/06/15 01:54:09;;;;;;;;;;;;;;;;;;3556103;27;20388;-40
2021/06/15 01:55:50;;;;;;;;;;;;;;;;;;3554813;27;19935;-40
2021/06/15 01:57:31;;;;;;;;;;;;;;;;;;3555903;27;19977;-40
2021/06/15 01:59:12;;;;;;;;;;;;;;;;;;3554548;27;19927;-40
2021/06/15 02:00:53;;;;;;;;;;;;;;;;;;3555807;27;19931;-40
2021/06/15 02:02:34;;;;;;;;;;;;;;;;;;3554573;27;20029;-40
2021/06/15 02:06:15;;;;;;;;;;;;;;;;;;3556854;27;20347;-40
2021/06/15 02:07:56;;;;;;;;;;;;;;;;;;3554631;27;19934;-45
2021/06/15 02:09:37;;;;;;;;;;;;;;;;;;3556777;27;20337;-45
2021/06/15 02:11:18;;;;;;;;;;;;;;;;;;3554174;27;19979;-45
2021/06/15 02:12:59;;;;;;;;;;;;;;;;;;3554173;27;19973;-46
2021/06/15 02:14:40;;;;;;;;;;;;;;;;;;3568415;27;20029;-48
2021/06/15 02:16:21;;;;;;;;;;;;;;;;;;3554952;27;19927;-40
2021/06/15 02:18:02;;;;;;;;;;;;;;;;;;3557073;27;19934;-41
2021/06/15 02:19:44;;;;;;;;;;;;;;;;;;3554152;27;19981;-41
2021/06/15 02:21:25;;;;;;;;;;;;;;;;;;3554516;27;19927;-41
2021/06/15 02:23:06;;;;;;;;;;;;;;;;;;3554142;27;19942;-41
2021/06/15 02:24:46;;;;;;;;;;;;;;;;;;3556888;27;19927;-41
2021/06/15 02:26:27;;;;;;;;;;;;;;;;;;3553693;27;20375;-42
2021/06/15 02:28:08;;;;;;;;;;;;;;;;;;3555605;27;19927;-41
2021/06/15 02:29:49;;;;;;;;;;;;;;;;;;3555561;27;19949;-41
2021/06/15 02:31:30;;;;;;;;;;;;;;;;;;3553672;27;20441;-41
2021/06/15 02:33:11;;;;;;;;;;;;;;;;;;3556649;27;19927;-41
2021/06/15 02:34:52;;;;;;;;;;;;;;;;;;3554238;27;19934;-41
2021/06/15 02:36:33;;;;;;;;;;;;;;;;;;3556861;27;19935;-41
2021/06/15 02:38:14;;;;;;;;;;;;;;;;;;3554150;27;19931;-41
2021/06/15 02:39:55;;;;;;;;;;;;;;;;;;3555407;27;20343;-41
2021/06/15 02:41:36;;;;;;;;;;;;;;;;;;3556162;27;19956;-41
2021/06/15 02:43:17;;;;;;;;;;;;;;;;;;3554242;27;19931;-41
2021/06/15 02:44:58;;;;;;;;;;;;;;;;;;3555497;27;19931;-41
2021/06/15 02:46:41;;;;;;;;;;;;;;;;;;3553736;27;20017;-41
2021/06/15 02:48:22;;;;;;;;;;;;;;;;;;3553861;27;19939;-41
2021/06/15 02:50:03;;;;;;;;;;;;;;;;;;3553956;27;19931;-41
2021/06/15 02:51:44;;;;;;;;;;;;;;;;;;3555126;27;20026;-41
2021/06/15 02:53:25;;;;;;;;;;;;;;;;;;3556032;27;19927;-41
2021/06/15 02:55:05;;;;;;;;;;;;;;;;;;3553395;27;20380;-41
2021/06/15 02:56:46;;;;;;;;;;;;;;;;;;3555161;27;20447;-42
2021/06/15 02:58:27;;;;;;;;;;;;;;;;;;3553829;27;19931;-41
2021/06/15 03:00:08;;;;;;;;;;;;;;;;;;3556470;27;20380;-41
2021/06/15 03:01:49;;;;;;;;;;;;;;;;;;3553941;27;19955;-41
2021/06/15 03:03:30;;;;;;;;;;;;;;;;;;3556473;27;19927;-41
2021/06/15 03:05:14;;;;;;;;;;;;;;;;;;3554338;27;20418;-41
2021/06/15 03:06:55;;;;;;;;;;;;;;;;;;3554706;27;20250;-41
2021/06/15 03:08:36;;;;;;;;;;;;;;;;;;3555284;27;19931;-41
2021/06/15 03:10:17;;;;;;;;;;;;;;;;;;3553519;27;20391;-41
2021/06/15 03:11:57;;;;;;;;;;;;;;;;;;3555970;27;19931;-41
2021/06/15 03:13:38;;;;;;;;;;;;;;;;;;3558055;27;19927;-41
2021/06/15 03:15:20;;;;;;;;;;;;;;;;;;3558045;27;19927;-45
2021/06/15 03:17:01;;;;;;;;;;;;;;;;;;3555898;27;19934;-43
2021/06/15 03:18:45;;;;;;;;;;;;;;;;;;3554237;27;19934;-43
2021/06/15 03:20:26;;;;;;;;;;;;;;;;;;3555059;27;20017;-44
2021/06/15 03:22:07;;;;;;;;;;;;;;;;;;3553182;27;19937;-43
2021/06/15 03:23:48;;;;;;;;;;;;;;;;;;3555951;27;19931;-42
2021/06/15 03:25:29;;;;;;;;;;;;;;;;;;3553829;27;19979;-43
2021/06/15 03:27:10;;;;;;;;;;;;;;;;;;3556084;27;20386;-43
2021/06/15 03:28:51;;;;;;;;;;;;;;;;;;3554109;27;20280;-44
2021/06/15 03:30:32;;;;;;;;;;;;;;;;;;3554014;27;19934;-43
2021/06/15 03:32:13;;;;;;;;;;;;;;;;;;3554977;27;19927;-42
2021/06/15 03:33:54;;;;;;;;;;;;;;;;;;3553302;27;20371;-42
2021/06/15 03:35:35;;;;;;;;;;;;;;;;;;3555908;27;20065;-43
2021/06/15 03:37:16;;;;;;;;;;;;;;;;;;3553459;27;19935;-43
2021/06/15 03:38:57;;;;;;;;;;;;;;;;;;3554412;27;19927;-43
2021/06/15 03:40:38;;;;;;;;;;;;;;;;;;3553348;27;19931;-44
2021/06/15 03:42:19;;;;;;;;;;;;;;;;;;3554814;27;19970;-42
2021/06/15 03:44:00;;;;;;;;;;;;;;;;;;3556179;27;20018;-42
2021/06/15 03:45:41;;;;;;;;;;;;;;;;;;3553278;27;19930;-42
2021/06/15 03:47:22;;;;;;;;;;;;;;;;;;3555961;27;20284;-43
2021/06/15 03:49:03;;;;;;;;;;;;;;;;;;3553257;27;19927;-42
2021/06/15 03:50:44;;;;;;;;;;;;;;;;;;3555752;27;19971;-42
2021/06/15 03:52:25;;;;;;;;;;;;;;;;;;3553337;27;20026;-43
2021/06/15 03:54:06;;;;;;;;;;;;;;;;;;3555688;27;19927;-43
2021/06/15 03:55:48;;;;;;;;;;;;;;;;;;3555335;27;20379;-43
2021/06/15 03:57:28;;;;;;;;;;;;;;;;;;3553125;27;19933;-42
2021/06/15 03:59:09;;;;;;;;;;;;;;;;;;3555671;27;19931;-43
2021/06/15 04:00:51;;;;;;;;;;;;;;;;;;3553054;27;19943;-43
2021/06/15 04:02:33;;;;;;;;;;;;;;;;;;3555613;27;20042;-43
2021/06/15 04:04:14;;;;;;;;;;;;;;;;;;3553259;27;19966;-42
2021/06/15 04:05:56;;;;;;;;;;;;;;;;;;3555513;27;19981;-43
2021/06/15 04:07:38;;;;;;;;;;;;;;;;;;3554904;27;19937;-43
2021/06/15 04:09:19;;;;;;;;;;;;;;;;;;3552610;27;19970;-43
2021/06/15 04:11:00;;;;;;;;;;;;;;;;;;3555733;27;20455;-46
2021/06/15 04:12:41;;;;;;;;;;;;;;;;;;3552988;27;19975;-46
2021/06/15 04:14:22;;;;;;;;;;;;;;;;;;3556460;27;20360;-43
2021/06/15 04:16:03;;;;;;;;;;;;;;;;;;3552839;27;19927;-43
2021/06/15 04:17:45;;;;;;;;;;;;;;;;;;3554472;27;19927;-42
2021/06/15 04:19:26;;;;;;;;;;;;;;;;;;3554738;27;19981;-43
2021/06/15 04:21:07;;;;;;;;;;;;;;;;;;3553590;27;19927;-43
2021/06/15 04:22:48;;;;;;;;;;;;;;;;;;3554514;27;20387;-43
2021/06/15 04:24:28;;;;;;;;;;;;;;;;;;3552806;27;19958;-44
2021/06/15 04:26:09;;;;;;;;;;;;;;;;;;3554018;27;19927;-44
2021/06/15 04:27:50;;;;;;;;;;;;;;;;;;3553026;27;19927;-43
2021/06/15 04:29:31;;;;;;;;;;;;;;;;;;3555335;27;19933;-42
2021/06/15 04:31:12;;;;;;;;;;;;;;;;;;3553886;27;20330;-43
2021/06/15 04:32:55;;;;;;;;;;;;;;;;;;3554267;27;19927;-43
2021/06/15 04:34:36;;;;;;;;;;;;;;;;;;3554401;27;19974;-43
2021/06/15 04:36:17;;;;;;;;;;;;;;;;;;3552509;27;19927;-43
2021/06/15 04:37:59;;;;;;;;;;;;;;;;;;3555187;27;20052;-43
2021/06/15 04:39:40;;;;;;;;;;;;;;;;;;3553289;27;19931;-45
2021/06/15 04:41:22;;;;;;;;;;;;;;;;;;3554276;27;20285;-48
2021/06/15 04:43:03;;;;;;;;;;;;;;;;;;3553577;27;20007;-46
2021/06/15 04:44:44;;;;;;;;;;;;;;;;;;3553393;27;19927;-45
2021/06/15 04:46:25;;;;;;;;;;;;;;;;;;3555614;27;20391;-45
2021/06/15 04:48:09;;;;;;;;;;;;;;;;;;3552619;27;19927;-45
2021/06/15 04:49:50;;;;;;;;;;;;;;;;;;3553971;27;19927;-45
2021/06/15 04:51:31;;;;;;;;;;;;;;;;;;3552858;27;19934;-43
2021/06/15 04:53:12;;;;;;;;;;;;;;;;;;3555087;27;20204;-43
2021/06/15 04:54:53;;;;;;;;;;;;;;;;;;3553144;27;20030;-43
2021/06/15 04:56:33;;;;;;;;;;;;;;;;;;3554710;27;19926;-43
2021/06/15 04:58:14;;;;;;;;;;;;;;;;;;3553836;27;19935;-45
2021/06/15 04:59:55;;;;;;;;;;;;;;;;;;3552424;27;19962;-44
2021/06/15 05:01:36;;;;;;;;;;;;;;;;;;3555201;27;20408;-44
2021/06/15 05:03:17;;;;;;;;;;;;;;;;;;3552611;27;19927;-44
2021/06/15 05:04:58;;;;;;;;;;;;;;;;;;3553817;27;20380;-45
2021/06/15 05:06:39;;;;;;;;;;;;;;;;;;3552511;27;20029;-43
2021/06/15 05:08:20;;;;;;;;;;;;;;;;;;3553949;27;20447;-44
2021/06/15 05:10:01;;;;;;;;;;;;;;;;;;3558852;27;20079;-43
2021/06/15 05:11:42;;;;;;;;;;;;;;;;;;3554508;27;20432;-45
2021/06/15 05:13:23;;;;;;;;;;;;;;;;;;3552078;27;19927;-44
2021/06/15 05:15:04;;;;;;;;;;;;;;;;;;3552664;27;20063;-43
2021/06/15 05:16:45;;;;;;;;;;;;;;;;;;3553607;27;20356;-44
2021/06/15 05:18:26;;;;;;;;;;;;;;;;;;3552621;27;20061;-44
2021/06/15 05:20:07;;;;;;;;;;;;;;;;;;3553835;27;19931;-44
2021/06/15 05:21:48;;;;;;;;;;;;;;;;;;3554405;27;19930;-45
2021/06/15 05:23:29;;;;;;;;;;;;;;;;;;3552001;27;20402;-44
2021/06/15 05:25:10;;;;;;;;;;;;;;;;;;3553650;27;20340;-44
2021/06/15 05:26:51;;;;;;;;;;;;;;;;;;3552137;27;19981;-44
2021/06/15 05:28:32;;;;;;;;;;;;;;;;;;3555047;27;19926;-45
2021/06/15 05:30:12;;;;;;;;;;;;;;;;;;3555066;27;20396;-44
2021/06/15 05:31:56;;;;;;;;;;;;;;;;;;3557307;27;19976;-44
2021/06/15 05:33:38;;;;;;;;;;;;;;;;;;3556996;27;19927;-45
2021/06/15 05:35:18;;;;;;;;;;;;;;;;;;3554421;27;20308;-44
2021/06/15 05:36:59;;;;;;;;;;;;;;;;;;3557407;27;20029;-44
2021/06/15 05:38:40;;;;;;;;;;;;;;;;;;3554734;27;19927;-45
2021/06/15 05:40:21;;;;;;;;;;;;;;;;;;3556100;27;20018;-45
2021/06/15 05:42:02;;;;;;;;;;;;;;;;;;3554618;27;19927;-45
2021/06/15 05:43:43;;;;;;;;;;;;;;;;;;3557281;27;19926;-44
2021/06/15 05:45:24;;;;;;;;;;;;;;;;;;3555998;27;19927;-45
2021/06/15 05:47:05;;;;;;;;;;;;;;;;;;3555792;27;20021;-45
2021/06/15 05:48:46;;;;;;;;;;;;;;;;;;3557419;27;19926;-45
2021/06/15 05:50:27;;;;;;;;;;;;;;;;;;3554494;27;20030;-45
2021/06/15 05:52:08;;;;;;;;;;;;;;;;;;3554970;27;19934;-45
2021/06/15 05:53:49;;;;;;;;;;;;;;;;;;3554711;27;19931;-44
2021/06/15 05:55:30;;;;;;;;;;;;;;;;;;3556499;27;20030;-44
2021/06/15 05:57:11;;;;;;;;;;;;;;;;;;3556144;27;20070;-44
2021/06/15 05:58:52;;;;;;;;;;;;;;;;;;3554136;27;19927;-44
2021/06/15 06:00:33;;;;;;;;;;;;;;;;;;3555675;27;20436;-44
2021/06/15 06:02:14;;;;;;;;;;;;;;;;;;3554511;27;19930;-44
2021/06/15 06:04:00;;;;;;;;;;;;;;;;;;3555810;27;20383;-45
2021/06/15 06:09:40;;;;;;;;;;;;;;;;;;3557067;27;20046;-44
2021/06/15 06:11:20;;;;;;;;;;;;;;;;;;3554383;27;19927;-44
2021/06/15 06:13:01;;;;;;;;;;;;;;;;;;3554180;27;19933;-44
2021/06/15 06:14:43;;;;;;;;;;;;;;;;;;3567508;27;19934;-44
2021/06/15 06:16:24;;;;;;;;;;;;;;;;;;3554805;27;19927;-43
2021/06/15 06:18:22;;;;;;;;;;;;;;;;;;3556755;27;19930;-43
2021/06/15 06:20:03;;;;;;;;;;;;;;;;;;3554133;27;19927;-44
2021/06/15 06:21:44;;;;;;;;;;;;;;;;;;3556807;27;19927;-44
2021/06/15 06:23:28;;;;;;;;;;;;;;;;;;3554339;27;20380;-43
2021/06/15 06:25:08;;;;;;;;;;;;;;;;;;3556638;27;20400;-44
2021/06/15 06:26:50;;;;;;;;;;;;;;;;;;3556836;27;19942;-43
2021/06/15 06:28:31;;;;;;;;;;;;;;;;;;3554446;27;20335;-43
2021/06/15 06:30:12;;;;;;;;;;;;;;;;;;3556639;27;20503;-43
2021/06/15 06:31:53;;;;;;;;;;;;;;;;;;3554209;27;20011;-46
2021/06/15 06:33:34;;;;;;;;;;;;;;;;;;3556780;27;20303;-45
2021/06/15 06:35:16;;;;;;;;;;;;;;;;;;3554142;27;20303;-45
2021/06/15 06:36:57;;;;;;;;;;;;;;;;;;3555433;27;19927;-43
2021/06/15 06:38:38;;;;;;;;;;;;;;;;;;3556086;27;20439;-46
2021/06/15 06:40:18;;;;;;;;;;;;;;;;;;3552591;27;20181;-45
2021/06/15 06:41:59;;;;;;;;;;;;;;;;;;3556533;27;19933;-46
2021/06/15 06:43:40;;;;;;;;;;;;;;;;;;3554068;27;20021;-44
2021/06/15 06:45:21;;;;;;;;;;;;;;;;;;3554007;27;20371;-45
2021/06/15 06:47:02;;;;;;;;;;;;;;;;;;3553853;27;19927;-45
2021/06/15 06:48:43;;;;;;;;;;;;;;;;;;3555275;27;19934;-43
2021/06/15 06:50:24;;;;;;;;;;;;;;;;;;3555228;27;20427;-43
2021/06/15 06:52:05;;;;;;;;;;;;;;;;;;3554876;27;19934;-44
2021/06/15 06:53:46;;;;;;;;;;;;;;;;;;3553978;27;19926;-43
2021/06/15 06:55:28;;;;;;;;;;;;;;;;;;3553764;27;19931;-43
2021/06/15 06:57:09;;;;;;;;;;;;;;;;;;3554974;27;19966;-43
2021/06/15 06:58:51;;;;;;;;;;;;;;;;;;3554054;27;19966;-46
2021/06/15 07:00:31;;;;;;;;;;;;;;;;;;3556386;27;19927;-44
2021/06/15 07:02:12;;;;;;;;;;;;;;;;;;3553113;27;19969;-44
2021/06/15 07:03:53;;;;;;;;;;;;;;;;;;3555103;27;19927;-43
2021/06/15 07:05:34;;;;;;;;;;;;;;;;;;3554891;27;19934;-44
2021/06/15 07:07:15;;;;;;;;;;;;;;;;;;3553405;27;19995;-45
2021/06/15 07:08:56;;;;;;;;;;;;;;;;;;3554913;27;20038;-45
2021/06/15 07:10:37;;;;;;;;;;;;;;;;;;3553916;27;19927;-43
2021/06/15 07:12:18;;;;;;;;;;;;;;;;;;3556883;27;19931;-43
2021/06/15 07:13:59;;;;;;;;;;;;;;;;;;3560714;27;19927;-44
2021/06/15 07:15:40;;;;;;;;;;;;;;;;;;3556007;27;20014;-43
2021/06/15 07:17:21;;;;;;;;;;;;;;;;;;3555072;27;19926;-43
2021/06/15 07:19:02;;;;;;;;;;;;;;;;;;3554083;27;20439;-43
2021/06/15 07:20:43;;;;;;;;;;;;;;;;;;3554948;27;19927;-43
2021/06/15 07:22:24;;;;;;;;;;;;;;;;;;3553865;27;20405;-43
2021/06/15 07:24:05;;;;;;;;;;;;;;;;;;3556147;27;19927;-46
2021/06/15 07:25:45;;;;;;;;;;;;;;;;;;3553649;27;20303;-47
2021/06/15 07:27:26;;;;;;;;;;;;;;;;;;3554782;27;19934;-47
2021/06/15 07:29:11;;;;;;;;;;;;;;;;;;3556191;27;19927;-45
2021/06/15 07:30:52;;;;;;;;;;;;;;;;;;3553563;27;20006;-46
2021/06/15 07:32:33;;;;;;;;;;;;;;;;;;3556056;27;19962;-45
2021/06/15 07:34:14;;;;;;;;;;;;;;;;;;3553738;27;19939;-47
2021/06/15 07:35:55;;;;;;;;;;;;;;;;;;3554663;27;19927;-48
2021/06/15 07:37:36;;;;;;;;;;;;;;;;;;3553429;27;19934;-45
2021/06/15 07:39:17;;;;;;;;;;;;;;;;;;3556161;27;19934;-45
2021/06/15 07:40:58;;;;;;;;;;;;;;;;;;3555284;27;19957;-45
2021/06/15 07:42:39;;;;;;;;;;;;;;;;;;3552871;27;19933;-43
2021/06/15 07:44:20;;;;;;;;;;;;;;;;;;3554704;27;19934;-43
2021/06/15 07:46:01;;;;;;;;;;;;;;;;;;3553314;27;20083;-43
2021/06/15 07:47:42;;;;;;;;;;;;;;;;;;3556383;27;19933;-45
2021/06/15 07:49:25;;;;;;;;;;;;;;;;;;3553957;27;19933;-46
2021/06/15 07:51:06;;;;;;;;;;;;;;;;;;3558015;27;19926;-44
2021/06/15 07:52:47;;;;;;;;;;;;;;;;;;3555889;27;19927;-43
2021/06/15 07:54:29;;;;;;;;;;;;;;;;;;3553395;27;20299;-44
2021/06/15 07:56:10;;;;;;;;;;;;;;;;;;3556553;27;20288;-45
2021/06/15 07:57:51;;;;;;;;;;;;;;;;;;3553746;27;20042;-45
2021/06/15 07:59:32;;;;;;;;;;;;;;;;;;3556450;27;20029;-45
2021/06/15 08:01:13;;;;;;;;;;;;;;;;;;3553629;27;19927;-45
2021/06/15 08:02:54;;;;;;;;;;;;;;;;;;3554996;27;20131;-45
2021/06/15 08:04:35;;;;;;;;;;;;;;;;;;3553651;27;19961;-44
2021/06/15 08:06:16;;;;;;;;;;;;;;;;;;3554387;27;19931;-43
2021/06/15 08:07:57;;;;;;;;;;;;;;;;;;3555874;27;19949;-46
2021/06/15 08:09:38;;;;;;;;;;;;;;;;;;3554182;27;20367;-43
2021/06/15 08:11:19;;;;;;;;;;;;;;;;;;3555488;27;19927;-43
2021/06/15 08:13:01;;;;;;;;;;;;;;;;;;3551929;27;20033;-42
2021/06/15 08:14:42;;;;;;;;;;;;;;;;;;3557656;27;19997;-43
2021/06/15 08:16:23;;;;;;;;;;;;;;;;;;3554897;27;19927;-43
2021/06/15 08:18:04;;;;;;;;;;;;;;;;;;3552674;27;19927;-44
2021/06/15 08:19:45;;;;;;;;;;;;;;;;;;3555213;27;19933;-44
2021/06/15 08:21:26;;;;;;;;;;;;;;;;;;3553126;27;19931;-45
2021/06/15 08:23:07;;;;;;;;;;;;;;;;;;3556027;27;19998;-43
2021/06/15 08:24:48;;;;;;;;;;;;;;;;;;3553694;27;19927;-45
2021/06/15 08:26:29;;;;;;;;;;;;;;;;;;3555375;27;19972;-44
2021/06/15 08:28:10;;;;;;;;;;;;;;;;;;3553538;27;19927;-44
2021/06/15 08:29:52;;;;;;;;;;;;;;;;;;3555848;27;19978;-44
2021/06/15 08:31:33;;;;;;;;;;;;;;;;;;3555996;27;19927;-43
2021/06/15 08:33:15;;;;;;;;;;;;;;;;;;3552863;27;19927;-43
2021/06/15 08:34:56;;;;;;;;;;;;;;;;;;3555339;27;19970;-45
2021/06/15 08:36:37;;;;;;;;;;;;;;;;;;3553491;27;20349;-45
2021/06/15 08:38:19;;;;;;;;;;;;;;;;;;3554053;27;20419;-44
2021/06/15 08:40:00;;;;;;;;;;;;;;;;;;3552957;27;20399;-47
2021/06/15 08:41:41;;;;;;;;;;;;;;;;;;3555392;27;19927;-44
2021/06/15 08:43:22;;;;;;;;;;;;;;;;;;3554689;27;20017;-43
2021/06/15 08:45:03;;;;;;;;;;;;;;;;;;3552356;27;20311;-43
2021/06/15 08:46:44;;;;;;;;;;;;;;;;;;3555243;27;19931;-43
2021/06/15 08:48:25;;;;;;;;;;;;;;;;;;3552876;27;19949;-44
2021/06/15 08:50:06;;;;;;;;;;;;;;;;;;3558638;27;20364;-44
2021/06/15 08:51:47;;;;;;;;;;;;;;;;;;3567847;27;19977;-45
2021/06/15 08:53:28;;;;;;;;;;;;;;;;;;3554817;27;20380;-45
2021/06/15 08:55:09;;;;;;;;;;;;;;;;;;3559975;27;19941;-45
2021/06/15 08:56:50;;;;;;;;;;;;;;;;;;3553167;27;20386;-43
2021/06/15 08:58:31;;;;;;;;;;;;;;;;;;3554217;27;20029;-46
2021/06/15 09:00:12;;;;;;;;;;;;;;;;;;3552725;27;19927;-45
2021/06/15 09:01:53;;;;;;;;;;;;;;;;;;3554085;27;19927;-44
2021/06/15 09:03:34;;;;;;;;;;;;;;;;;;3554050;27;19933;-46
2021/06/15 09:05:17;;;;;;;;;;;;;;;;;;3558129;27;19930;-44
2021/06/15 09:06:58;;;;;;;;;;;;;;;;;;3557227;27;19962;-45
2021/06/15 09:08:39;;;;;;;;;;;;;;;;;;3556754;27;19942;-44
2021/06/15 09:10:20;;;;;;;;;;;;;;;;;;3557930;27;19975;-43
2021/06/15 09:12:01;;;;;;;;;;;;;;;;;;3555316;27;19927;-43
2021/06/15 09:13:42;;;;;;;;;;;;;;;;;;3556265;27;19927;-45
2021/06/15 09:15:24;;;;;;;;;;;;;;;;;;3555157;27;20356;-45
2021/06/15 09:17:05;;;;;;;;;;;;;;;;;;3557448;27;19927;-43
2021/06/15 09:18:45;;;;;;;;;;;;;;;;;;3556546;27;20377;-44
2021/06/15 09:20:27;;;;;;;;;;;;;;;;;;3555994;27;19927;-47
2021/06/15 09:22:08;;;;;;;;;;;;;;;;;;3557635;27;19987;-43
2021/06/15 09:23:49;;;;;;;;;;;;;;;;;;3555182;27;19970;-45
2021/06/15 09:25:30;;;;;;;;;;;;;;;;;;3556816;27;20452;-47
2021/06/15 09:27:11;;;;;;;;;;;;;;;;;;3555173;27;19927;-47
2021/06/15 09:28:52;;;;;;;;;;;;;;;;;;3557387;27;19930;-45
2021/06/15 09:30:32;;;;;;;;;;;;;;;;;;3554609;27;19962;-45
2021/06/15 09:32:15;;;;;;;;;;;;;;;;;;3556224;27;20310;-44
2021/06/15 09:33:56;;;;;;;;;;;;;;;;;;3557506;27;20385;-44
2021/06/15 09:35:42;;;;;;;;;;;;;;;;;;3555369;27;20298;-49
2021/06/15 09:37:23;;;;;;;;;;;;;;;;;;3557413;27;19931;-46
2021/06/15 09:39:03;;;;;;;;;;;;;;;;;;3554850;27;19927;-45
2021/06/15 09:40:46;;;;;;;;;;;;;;;;;;3555128;27;20347;-44
2021/06/15 09:42:27;;;;;;;;;;;;;;;;;;3554128;27;20277;-45
2021/06/15 09:44:08;;;;;;;;;;;;;;;;;;3557726;27;20400;-43
2021/06/15 09:45:49;;;;;;;;;;;;;;;;;;3556273;27;20306;-43
2021/06/15 09:47:30;;;;;;;;;;;;;;;;;;3554799;27;20332;-45
2021/06/15 09:49:12;;;;;;;;;;;;;;;;;;3556002;27;19986;-44
2021/06/15 09:50:53;;;;;;;;;;;;;;;;;;3558627;27;20422;-43
2021/06/15 09:52:34;;;;;;;;;;;;;;;;;;3557689;27;20033;-44
2021/06/15 09:54:15;;;;;;;;;;;;;;;;;;3557453;27;19980;-44
2021/06/15 09:55:56;;;;;;;;;;;;;;;;;;3564250;27;20519;-43
2021/06/15 09:57:39;;;;;;;;;;;;;;;;;;3565154;27;19931;-43
2021/06/15 09:59:20;;;;;;;;;;;;;;;;;;3554522;27;19927;-43
2021/06/15 10:01:01;;;;;;;;;;;;;;;;;;3557024;27;19962;-44
2021/06/15 10:02:42;;;;;;;;;;;;;;;;;;3554503;27;19971;-44
2021/06/15 10:04:23;;;;;;;;;;;;;;;;;;3555842;27;19979;-44
2021/06/15 10:06:04;;;;;;;;;;;;;;;;;;3556285;27;19927;-43
2021/06/15 10:07:45;;;;;;;;;;;;;;;;;;3555071;27;19942;-45
2021/06/15 10:09:26;;;;;;;;;;;;;;;;;;3555520;27;20332;-43
2021/06/15 10:11:07;;;;;;;;;;;;;;;;;;3554160;27;19927;-43
2021/06/15 10:12:48;;;;;;;;;;;;;;;;;;3555508;27;19975;-43
2021/06/15 10:14:29;;;;;;;;;;;;;;;;;;3565917;27;19931;-44
2021/06/15 10:16:10;;;;;;;;;;;;;;;;;;3557913;27;19927;-43
2021/06/15 10:17:54;;;;;;;;;;;;;;;;;;3554783;27;19927;-44
2021/06/15 10:19:35;;;;;;;;;;;;;;;;;;3555199;27;20060;-44
2021/06/15 10:21:16;;;;;;;;;;;;;;;;;;3555491;27;20025;-43
2021/06/15 10:22:56;;;;;;;;;;;;;;;;;;3553975;27;19931;-43
2021/06/15 10:24:37;;;;;;;;;;;;;;;;;;3556716;27;19927;-44
2021/06/15 10:26:18;;;;;;;;;;;;;;;;;;3554376;27;20154;-43
2021/06/15 10:27:59;;;;;;;;;;;;;;;;;;3557000;27;19938;-45
2021/06/15 10:29:43;;;;;;;;;;;;;;;;;;3556074;27;20292;-43
2021/06/15 10:31:24;;;;;;;;;;;;;;;;;;3554957;27;20072;-44
2021/06/15 10:33:05;;;;;;;;;;;;;;;;;;3556921;27;20466;-44
2021/06/15 10:34:46;;;;;;;;;;;;;;;;;;3553982;27;19934;-44
2021/06/15 10:36:27;;;;;;;;;;;;;;;;;;3556441;27;19935;-44
2021/06/15 10:38:08;;;;;;;;;;;;;;;;;;3554145;27;20013;-43
2021/06/15 10:39:48;;;;;;;;;;;;;;;;;;3555400;27;19926;-43
2021/06/15 10:41:29;;;;;;;;;;;;;;;;;;3553998;27;19927;-45
2021/06/15 10:43:11;;;;;;;;;;;;;;;;;;3555358;27;20017;-45
2021/06/15 10:44:56;;;;;;;;;;;;;;;;;;3555385;27;19926;-44
2021/06/15 10:46:37;;;;;;;;;;;;;;;;;;3553943;27;19949;-44
2021/06/15 10:48:20;;;;;;;;;;;;;;;;;;3556232;27;19927;-44
2021/06/15 10:50:01;;;;;;;;;;;;;;;;;;3553840;27;19992;-44
2021/06/15 10:51:42;;;;;;;;;;;;;;;;;;3555305;27;19927;-44
2021/06/15 10:53:23;;;;;;;;;;;;;;;;;;3554902;27;19983;-44
2021/06/15 10:55:04;;;;;;;;;;;;;;;;;;3554617;27;20386;-45
2021/06/15 10:56:44;;;;;;;;;;;;;;;;;;3556728;27;20378;-44
2021/06/15 10:58:25;;;;;;;;;;;;;;;;;;3553720;27;19927;-44
2021/06/15 11:00:06;;;;;;;;;;;;;;;;;;3555148;27;19934;-46
2021/06/15 11:01:48;;;;;;;;;;;;;;;;;;3554078;27;19927;-45
2021/06/15 11:03:29;;;;;;;;;;;;;;;;;;3558562;27;20475;-45
2021/06/15 11:05:10;;;;;;;;;;;;;;;;;;3567745;27;19930;-44
2021/06/15 11:06:52;;;;;;;;;;;;;;;;;;3555908;27;20029;-44
2021/06/15 11:08:33;;;;;;;;;;;;;;;;;;3555444;27;19989;-46
2021/06/15 11:10:14;;;;;;;;;;;;;;;;;;3553417;27;19934;-44
2021/06/15 11:11:55;;;;;;;;;;;;;;;;;;3553431;27;20455;-45
2021/06/15 11:13:36;;;;;;;;;;;;;;;;;;3557699;27;19927;-45
2021/06/15 11:15:16;;;;;;;;;;;;;;;;;;3559263;27;19970;-44
2021/06/15 11:16:57;;;;;;;;;;;;;;;;;;3553197;27;19927;-44
2021/06/15 11:18:38;;;;;;;;;;;;;;;;;;3557104;27;19927;-44
2021/06/15 11:20:19;;;;;;;;;;;;;;;;;;3556507;27;20013;-45
2021/06/15 11:22:00;;;;;;;;;;;;;;;;;;3553104;27;19933;-45
2021/06/15 11:23:41;;;;;;;;;;;;;;;;;;3555015;27;19980;-44
2021/06/15 11:25:22;;;;;;;;;;;;;;;;;;3553490;27;19994;-44
2021/06/15 11:27:03;;;;;;;;;;;;;;;;;;3555324;27;20330;-45
2021/06/15 11:28:44;;;;;;;;;;;;;;;;;;3553856;27;20018;-44
2021/06/15 11:30:25;;;;;;;;;;;;;;;;;;3556029;27;19927;-45
2021/06/15 11:32:06;;;;;;;;;;;;;;;;;;3553734;27;20447;-45
2021/06/15 11:33:47;;;;;;;;;;;;;;;;;;3554215;27;19927;-44
2021/06/15 11:35:28;;;;;;;;;;;;;;;;;;3553903;27;19933;-44
2021/06/15 11:37:09;;;;;;;;;;;;;;;;;;3553223;27;19958;-44